createdAt,value
2018-08-16T00:00:11.504Z,26.29
2018-08-16T00:01:11.488Z,26.29
2018-08-16T00:02:11.477Z,26.29
2018-08-16T00:03:11.591Z,26.17
2018-08-16T00:04:11.480Z,26.31
2018-08-16T00:05:11.444Z,26.29
2018-08-16T00:06:11.563Z,26.21
2018-08-16T00:07:11.423Z,26.19
2018-08-16T00:08:11.556Z,26.21
2018-08-16T00:09:11.420Z,26.20
2018-08-16T00:10:11.393Z,26.23
2018-08-16T00:11:11.482Z,26.29
2018-08-16T00:12:11.395Z,26.16
2018-08-16T00:13:11.374Z,26.19
2018-08-16T00:14:11.372Z,26.16
2018-08-16T00:15:11.344Z,26.17
2018-08-16T00:16:11.326Z,26.24
2018-08-16T00:17:11.316Z,26.17
2018-08-16T00:18:11.334Z,26.13
2018-08-16T00:19:11.407Z,26.17
2018-08-16T00:20:11.297Z,26.21
2018-08-16T00:21:11.292Z,26.17
2018-08-16T00:22:11.302Z,26.21
2018-08-16T00:23:11.284Z,26.20
2018-08-16T00:24:11.246Z,26.20
2018-08-16T00:25:11.279Z,26.17
2018-08-16T00:26:12.656Z,26.16
2018-08-16T00:27:11.224Z,26.20
2018-08-16T00:28:11.235Z,26.19
2018-08-16T00:29:11.195Z,26.16
2018-08-16T00:30:11.177Z,26.21
2018-08-16T00:31:11.165Z,26.21
2018-08-16T00:32:11.155Z,26.20
2018-08-16T00:33:11.267Z,26.16
2018-08-16T00:34:11.154Z,26.16
2018-08-16T00:35:11.137Z,26.19
2018-08-16T00:36:11.125Z,26.20
2018-08-16T00:37:11.233Z,26.19
2018-08-16T00:38:11.106Z,26.08
2018-08-16T00:39:11.095Z,26.16
2018-08-16T00:40:11.085Z,26.09
2018-08-16T00:41:11.060Z,26.12
2018-08-16T00:42:11.048Z,26.08
2018-08-16T00:43:11.044Z,26.11
2018-08-16T00:44:11.155Z,26.12
2018-08-16T00:45:11.132Z,26.08
2018-08-16T00:46:11.115Z,26.12
2018-08-16T00:47:11.371Z,26.08
2018-08-16T00:48:11.103Z,26.09
2018-08-16T00:49:11.000Z,26.11
2018-08-16T00:50:10.971Z,26.04
2018-08-16T00:51:10.952Z,26.08
2018-08-16T00:52:10.958Z,26.06
2018-08-16T00:53:11.036Z,26.12
2018-08-16T00:54:10.944Z,26.09
2018-08-16T00:55:10.919Z,26.09
2018-08-16T00:56:10.902Z,26.06
2018-08-16T00:57:11.003Z,26.09
2018-08-16T00:58:10.875Z,26.08
2018-08-16T00:59:11.364Z,26.12
2018-08-16T01:00:10.873Z,26.09
2018-08-16T01:01:10.882Z,26.11
2018-08-16T01:02:10.836Z,26.06
2018-08-16T01:03:10.825Z,26.04
2018-08-16T01:04:10.844Z,26.09
2018-08-16T01:05:10.805Z,26.03
2018-08-16T01:06:10.796Z,26.04
2018-08-16T01:07:10.812Z,26.04
2018-08-16T01:08:10.787Z,26.11
2018-08-16T01:09:10.774Z,26.11
2018-08-16T01:10:10.861Z,26.03
2018-08-16T01:11:10.853Z,26.03
2018-08-16T01:12:10.739Z,26.12
2018-08-16T01:13:10.720Z,26.00
2018-08-16T01:14:10.838Z,26.12
2018-08-16T01:15:10.696Z,26.09
2018-08-16T01:16:10.697Z,26.06
2018-08-16T01:17:10.683Z,26.03
2018-08-16T01:18:10.669Z,26.03
2018-08-16T01:19:10.674Z,26.06
2018-08-16T01:20:10.678Z,26.01
2018-08-16T01:21:10.632Z,26.04
2018-08-16T01:22:10.635Z,26.06
2018-08-16T01:23:10.619Z,26.04
2018-08-16T01:24:10.660Z,26.06
2018-08-16T01:25:10.612Z,26.00
2018-08-16T01:26:10.600Z,26.08
2018-08-16T01:27:10.688Z,26.01
2018-08-16T01:28:10.630Z,26.01
2018-08-16T01:29:10.564Z,26.00
2018-08-16T01:30:10.706Z,26.03
2018-08-16T01:31:10.580Z,26.00
2018-08-16T01:32:10.628Z,25.98
2018-08-16T01:33:10.609Z,26.03
2018-08-16T01:34:10.515Z,26.01
2018-08-16T01:35:10.599Z,26.03
2018-08-16T01:36:10.495Z,25.98
2018-08-16T01:37:10.482Z,25.94
2018-08-16T01:38:10.449Z,25.97
2018-08-16T01:39:10.457Z,25.98
2018-08-16T01:40:10.446Z,25.97
2018-08-16T01:41:11.165Z,25.98
2018-08-16T01:42:10.409Z,25.94
2018-08-16T01:43:10.403Z,25.97
2018-08-16T01:44:10.414Z,25.94
2018-08-16T01:45:10.375Z,25.97
2018-08-16T01:46:10.489Z,25.96
2018-08-16T01:47:10.380Z,25.93
2018-08-16T01:48:10.364Z,25.96
2018-08-16T01:49:10.346Z,25.97
2018-08-16T01:50:10.333Z,25.97
2018-08-16T01:51:10.421Z,25.96
2018-08-16T01:52:10.327Z,25.89
2018-08-16T01:53:10.288Z,25.93
2018-08-16T01:54:10.312Z,25.98
2018-08-16T01:55:10.301Z,25.93
2018-08-16T01:56:10.269Z,25.97
2018-08-16T01:57:10.252Z,25.86
2018-08-16T01:58:10.362Z,25.96
2018-08-16T01:59:10.247Z,25.96
2018-08-16T02:00:10.371Z,25.91
2018-08-16T02:01:10.222Z,25.96
2018-08-16T02:02:10.207Z,25.94
2018-08-16T02:03:10.179Z,25.96
2018-08-16T02:04:10.183Z,25.93
2018-08-16T02:05:10.291Z,26.01
2018-08-16T02:06:10.197Z,25.86
2018-08-16T02:07:10.139Z,25.81
2018-08-16T02:08:10.128Z,25.90
2018-08-16T02:09:10.231Z,25.81
2018-08-16T02:10:10.254Z,25.96
2018-08-16T02:11:10.104Z,25.81
2018-08-16T02:12:10.094Z,25.98
2018-08-16T02:13:10.096Z,25.85
2018-08-16T02:14:10.066Z,25.81
2018-08-16T02:15:10.106Z,25.81
2018-08-16T02:16:10.055Z,25.86
2018-08-16T02:17:10.030Z,25.86
2018-08-16T02:18:10.045Z,25.82
2018-08-16T02:19:10.034Z,25.89
2018-08-16T02:20:10.020Z,25.82
2018-08-16T02:21:10.001Z,25.81
2018-08-16T02:22:09.980Z,25.86
2018-08-16T02:23:09.967Z,25.83
2018-08-16T02:24:09.971Z,25.85
2018-08-16T02:25:10.019Z,25.82
2018-08-16T02:26:10.054Z,25.83
2018-08-16T02:27:09.926Z,25.82
2018-08-16T02:28:09.930Z,25.89
2018-08-16T02:29:10.052Z,25.83
2018-08-16T02:30:09.917Z,25.82
2018-08-16T02:31:09.898Z,25.82
2018-08-16T02:32:09.888Z,25.82
2018-08-16T02:33:10.124Z,25.81
2018-08-16T02:34:09.847Z,25.78
2018-08-16T02:35:09.858Z,25.82
2018-08-16T02:36:10.010Z,25.76
2018-08-16T02:37:09.832Z,25.74
2018-08-16T02:38:09.823Z,25.79
2018-08-16T02:39:09.800Z,25.83
2018-08-16T02:40:09.798Z,25.75
2018-08-16T02:41:09.775Z,25.75
2018-08-16T02:42:09.771Z,25.76
2018-08-16T02:43:09.763Z,25.74
2018-08-16T02:44:09.821Z,25.78
2018-08-16T02:45:09.765Z,25.71
2018-08-16T02:46:09.740Z,25.69
2018-08-16T02:47:09.716Z,25.74
2018-08-16T02:48:09.712Z,25.74
2018-08-16T02:49:09.698Z,25.74
2018-08-16T02:50:09.722Z,25.71
2018-08-16T02:51:09.683Z,25.69
2018-08-16T02:52:09.673Z,25.75
2018-08-16T02:53:09.660Z,25.78
2018-08-16T02:54:09.646Z,25.74
2018-08-16T02:55:09.762Z,25.76
2018-08-16T02:56:09.631Z,25.76
2018-08-16T02:57:09.727Z,25.75
2018-08-16T02:58:09.617Z,25.72
2018-08-16T02:59:09.651Z,25.76
2018-08-16T03:00:09.593Z,25.74
2018-08-16T03:01:09.571Z,25.74
2018-08-16T03:02:09.572Z,25.74
2018-08-16T03:03:09.607Z,25.76
2018-08-16T03:04:09.839Z,25.74
2018-08-16T03:05:09.564Z,25.75
2018-08-16T03:06:09.548Z,25.69
2018-08-16T03:07:09.620Z,25.75
2018-08-16T03:08:10.052Z,25.71
2018-08-16T03:09:09.498Z,25.78
2018-08-16T03:10:09.481Z,25.71
2018-08-16T03:11:09.557Z,25.74
2018-08-16T03:12:09.503Z,25.72
2018-08-16T03:13:09.441Z,25.71
2018-08-16T03:14:09.446Z,25.75
2018-08-16T03:15:09.441Z,25.74
2018-08-16T03:16:09.439Z,25.61
2018-08-16T03:17:09.387Z,25.63
2018-08-16T03:18:09.375Z,25.66
2018-08-16T03:19:09.365Z,25.71
2018-08-16T03:20:09.367Z,25.60
2018-08-16T03:21:09.351Z,25.74
2018-08-16T03:22:09.364Z,25.60
2018-08-16T03:23:09.340Z,25.60
2018-08-16T03:24:09.418Z,25.69
2018-08-16T03:25:09.322Z,25.59
2018-08-16T03:26:09.317Z,25.60
2018-08-16T03:27:09.279Z,25.60
2018-08-16T03:28:09.273Z,25.63
2018-08-16T03:29:09.290Z,25.59
2018-08-16T03:30:09.253Z,25.60
2018-08-16T03:31:09.291Z,25.53
2018-08-16T03:32:09.225Z,25.59
2018-08-16T03:33:09.223Z,25.60
2018-08-16T03:34:09.215Z,25.59
2018-08-16T03:35:09.218Z,25.59
2018-08-16T03:36:09.280Z,25.60
2018-08-16T03:37:09.188Z,25.66
2018-08-16T03:38:09.187Z,25.60
2018-08-16T03:39:09.278Z,25.63
2018-08-16T03:40:09.157Z,25.60
2018-08-16T03:41:09.147Z,25.57
2018-08-16T03:42:09.125Z,25.64
2018-08-16T03:43:09.197Z,25.61
2018-08-16T03:44:09.673Z,25.60
2018-08-16T03:45:09.209Z,25.61
2018-08-16T03:46:09.096Z,25.59
2018-08-16T03:47:09.085Z,25.64
2018-08-16T03:48:09.258Z,25.56
2018-08-16T03:49:09.053Z,25.61
2018-08-16T03:50:09.042Z,25.63
2018-08-16T03:51:09.053Z,25.63
2018-08-16T03:52:09.024Z,25.64
2018-08-16T03:53:09.016Z,25.56
2018-08-16T03:54:09.003Z,25.53
2018-08-16T03:55:09.090Z,25.53
2018-08-16T03:56:08.981Z,25.61
2018-08-16T03:57:08.973Z,25.60
2018-08-16T03:58:08.953Z,25.59
2018-08-16T03:59:09.042Z,25.57
2018-08-16T04:00:08.945Z,25.59
2018-08-16T04:01:08.932Z,25.51
2018-08-16T04:02:08.916Z,25.57
2018-08-16T04:03:08.921Z,25.53
2018-08-16T04:04:08.891Z,25.53
2018-08-16T04:05:08.960Z,25.57
2018-08-16T04:06:08.873Z,25.57
2018-08-16T04:07:08.872Z,25.54
2018-08-16T04:08:08.852Z,25.54
2018-08-16T04:09:08.845Z,25.53
2018-08-16T04:10:08.835Z,25.46
2018-08-16T04:11:08.830Z,25.56
2018-08-16T04:12:08.824Z,25.54
2018-08-16T04:13:08.794Z,25.53
2018-08-16T04:14:08.772Z,25.49
2018-08-16T04:15:08.873Z,25.60
2018-08-16T04:16:08.842Z,25.53
2018-08-16T04:17:08.758Z,25.56
2018-08-16T04:18:08.776Z,25.53
2018-08-16T04:19:08.793Z,25.48
2018-08-16T04:20:08.730Z,25.45
2018-08-16T04:21:08.710Z,25.46
2018-08-16T04:22:08.702Z,25.46
2018-08-16T04:23:08.688Z,25.48
2018-08-16T04:24:08.701Z,25.46
2018-08-16T04:25:08.710Z,25.46
2018-08-16T04:26:08.679Z,25.48
2018-08-16T04:27:08.647Z,25.54
2018-08-16T04:28:08.625Z,25.49
2018-08-16T04:29:08.738Z,25.44
2018-08-16T04:30:08.611Z,25.48
2018-08-16T04:31:08.779Z,25.44
2018-08-16T04:32:08.590Z,25.54
2018-08-16T04:33:08.585Z,25.49
2018-08-16T04:34:08.560Z,25.44
2018-08-16T04:35:08.655Z,25.51
2018-08-16T04:36:08.564Z,25.45
2018-08-16T04:37:08.665Z,25.45
2018-08-16T04:38:08.571Z,25.45
2018-08-16T04:39:08.547Z,25.44
2018-08-16T04:40:08.522Z,25.48
2018-08-16T04:41:08.499Z,25.42
2018-08-16T04:42:08.508Z,25.48
2018-08-16T04:43:08.464Z,25.45
2018-08-16T04:44:08.472Z,25.45
2018-08-16T04:45:08.456Z,25.49
2018-08-16T04:46:08.474Z,25.46
2018-08-16T04:47:08.551Z,25.42
2018-08-16T04:48:08.503Z,25.44
2018-08-16T04:49:08.421Z,25.45
2018-08-16T04:50:08.402Z,25.48
2018-08-16T04:51:08.472Z,25.51
2018-08-16T04:52:08.383Z,25.45
2018-08-16T04:53:08.373Z,25.48
2018-08-16T04:54:08.594Z,25.44
2018-08-16T04:55:08.330Z,25.46
2018-08-16T04:56:08.901Z,25.53
2018-08-16T04:57:08.325Z,25.46
2018-08-16T04:58:08.320Z,25.45
2018-08-16T04:59:08.410Z,25.45
2018-08-16T05:00:08.293Z,25.44
2018-08-16T05:01:08.293Z,25.46
2018-08-16T05:02:08.273Z,25.45
2018-08-16T05:03:08.243Z,25.46
2018-08-16T05:04:08.235Z,25.49
2018-08-16T05:05:08.369Z,25.49
2018-08-16T05:06:08.227Z,25.45
2018-08-16T05:07:08.350Z,25.45
2018-08-16T05:08:08.214Z,25.45
2018-08-16T05:09:08.214Z,25.54
2018-08-16T05:10:08.249Z,25.49
2018-08-16T05:11:08.227Z,25.48
2018-08-16T05:12:08.316Z,25.42
2018-08-16T05:13:08.155Z,25.44
2018-08-16T05:14:08.349Z,25.46
2018-08-16T05:15:08.128Z,25.51
2018-08-16T05:16:08.152Z,25.51
2018-08-16T05:17:08.172Z,25.44
2018-08-16T05:18:08.094Z,25.45
2018-08-16T05:19:08.086Z,25.44
2018-08-16T05:20:08.069Z,25.49
2018-08-16T05:21:08.201Z,25.48
2018-08-16T05:22:08.070Z,25.53
2018-08-16T05:23:08.036Z,25.48
2018-08-16T05:24:08.173Z,25.56
2018-08-16T05:25:08.020Z,25.46
2018-08-16T05:26:08.178Z,25.51
2018-08-16T05:27:08.009Z,25.45
2018-08-16T05:28:08.054Z,25.57
2018-08-16T05:29:07.985Z,25.54
2018-08-16T05:30:07.967Z,25.45
2018-08-16T05:31:07.965Z,25.53
2018-08-16T05:32:10.079Z,25.46
2018-08-16T05:33:08.022Z,25.51
2018-08-16T05:34:07.914Z,25.48
2018-08-16T05:35:07.901Z,25.49
2018-08-16T05:36:07.923Z,25.48
2018-08-16T05:37:07.896Z,25.56
2018-08-16T05:38:07.891Z,25.49
2018-08-16T05:39:07.876Z,25.48
2018-08-16T05:40:07.941Z,25.49
2018-08-16T05:41:07.838Z,25.54
2018-08-16T05:42:07.973Z,25.51
2018-08-16T05:43:08.019Z,25.51
2018-08-16T05:44:07.848Z,25.46
2018-08-16T05:45:07.862Z,25.49
2018-08-16T05:46:07.802Z,25.60
2018-08-16T05:47:07.853Z,25.56
2018-08-16T05:48:07.769Z,25.54
2018-08-16T05:49:07.753Z,25.54
2018-08-16T05:50:07.763Z,25.51
2018-08-16T05:51:07.751Z,25.51
2018-08-16T05:52:07.845Z,25.54
2018-08-16T05:53:07.713Z,25.54
2018-08-16T05:54:07.846Z,25.49
2018-08-16T05:55:07.767Z,25.60
2018-08-16T05:56:07.780Z,25.54
2018-08-16T05:57:07.682Z,25.48
2018-08-16T05:58:07.837Z,25.53
2018-08-16T05:59:07.644Z,25.54
2018-08-16T06:00:07.783Z,25.60
2018-08-16T06:01:07.632Z,25.51
2018-08-16T06:02:07.632Z,25.59
2018-08-16T06:03:07.699Z,25.60
2018-08-16T06:04:07.670Z,25.56
2018-08-16T06:05:07.610Z,25.56
2018-08-16T06:06:07.650Z,25.49
2018-08-16T06:07:07.572Z,25.54
2018-08-16T06:08:07.573Z,25.59
2018-08-16T06:09:07.624Z,25.59
2018-08-16T06:10:07.544Z,25.53
2018-08-16T06:11:07.528Z,25.59
2018-08-16T06:12:07.530Z,25.57
2018-08-16T06:13:07.612Z,25.49
2018-08-16T06:14:07.605Z,25.57
2018-08-16T06:15:07.474Z,25.54
2018-08-16T06:16:07.470Z,25.60
2018-08-16T06:17:07.581Z,25.60
2018-08-16T06:18:07.602Z,25.54
2018-08-16T06:19:07.565Z,25.56
2018-08-16T06:20:07.462Z,25.57
2018-08-16T06:21:07.530Z,25.56
2018-08-16T06:22:07.402Z,25.56
2018-08-16T06:23:07.420Z,25.61
2018-08-16T06:24:07.493Z,25.53
2018-08-16T06:25:07.398Z,25.56
2018-08-16T06:26:07.430Z,25.56
2018-08-16T06:27:07.410Z,25.57
2018-08-16T06:28:07.350Z,25.60
2018-08-16T06:29:07.739Z,25.57
2018-08-16T06:30:07.352Z,25.67
2018-08-16T06:31:07.471Z,25.56
2018-08-16T06:32:07.291Z,25.60
2018-08-16T06:33:07.420Z,25.57
2018-08-16T06:34:07.396Z,25.60
2018-08-16T06:35:07.387Z,25.59
2018-08-16T06:36:09.297Z,25.48
2018-08-16T06:37:07.253Z,25.64
2018-08-16T06:38:07.400Z,25.59
2018-08-16T06:39:11.172Z,25.60
2018-08-16T06:40:07.209Z,25.60
2018-08-16T06:41:07.325Z,25.56
2018-08-16T06:42:07.204Z,25.60
2018-08-16T06:43:07.305Z,25.59
2018-08-16T06:44:07.171Z,25.59
2018-08-16T06:45:07.289Z,25.60
2018-08-16T06:46:07.293Z,25.61
2018-08-16T06:47:07.148Z,25.63
2018-08-16T06:48:07.201Z,25.60
2018-08-16T06:49:07.149Z,25.59
2018-08-16T06:50:07.119Z,25.64
2018-08-16T06:51:07.100Z,25.56
2018-08-16T06:52:07.181Z,25.63
2018-08-16T06:53:07.195Z,25.64
2018-08-16T06:54:07.191Z,25.60
2018-08-16T06:55:07.241Z,25.64
2018-08-16T06:56:07.033Z,25.59
2018-08-16T06:57:07.148Z,25.61
2018-08-16T06:58:07.182Z,25.57
2018-08-16T06:59:07.158Z,25.57
2018-08-16T07:00:07.082Z,25.66
2018-08-16T07:01:06.998Z,25.56
2018-08-16T07:02:07.118Z,25.59
2018-08-16T07:03:07.147Z,25.57
2018-08-16T07:04:06.986Z,25.61
2018-08-16T07:05:07.075Z,25.63
2018-08-16T07:06:08.410Z,25.57
2018-08-16T07:07:07.041Z,25.60
2018-08-16T07:08:07.010Z,25.57
2018-08-16T07:09:07.043Z,25.59
2018-08-16T07:10:07.049Z,25.60
2018-08-16T07:11:06.985Z,25.60
2018-08-16T07:12:07.018Z,25.64
2018-08-16T07:13:06.876Z,25.60
2018-08-16T07:14:06.925Z,25.60
2018-08-16T07:15:06.906Z,25.61
2018-08-16T07:16:06.961Z,25.61
2018-08-16T07:17:06.820Z,25.63
2018-08-16T07:18:06.976Z,25.59
2018-08-16T07:19:06.844Z,25.61
2018-08-16T07:20:06.896Z,25.71
2018-08-16T07:21:06.803Z,25.71
2018-08-16T07:22:06.882Z,25.72
2018-08-16T07:23:06.879Z,25.67
2018-08-16T07:24:06.737Z,25.69
2018-08-16T07:25:06.857Z,25.60
2018-08-16T07:26:06.711Z,25.71
2018-08-16T07:27:06.832Z,25.60
2018-08-16T07:28:06.834Z,25.74
2018-08-16T07:29:06.791Z,25.75
2018-08-16T07:30:06.883Z,25.57
2018-08-16T07:31:06.696Z,25.67
2018-08-16T07:32:06.656Z,25.74
2018-08-16T07:33:06.777Z,25.71
2018-08-16T07:34:06.749Z,25.75
2018-08-16T07:35:17.682Z,25.69
2018-08-16T07:36:06.627Z,25.72
2018-08-16T07:37:06.647Z,25.74
2018-08-16T07:38:06.597Z,25.74
2018-08-16T07:39:06.589Z,25.67
2018-08-16T07:40:06.607Z,25.75
2018-08-16T07:41:06.611Z,25.72
2018-08-16T07:42:06.719Z,25.71
2018-08-16T07:43:06.683Z,25.75
2018-08-16T07:44:07.676Z,25.71
2018-08-16T07:45:06.667Z,25.71
2018-08-16T07:46:06.718Z,25.71
2018-08-16T07:47:06.619Z,25.74
2018-08-16T07:48:06.514Z,25.71
2018-08-16T07:49:06.597Z,25.72
2018-08-16T07:50:06.576Z,25.75
2018-08-16T07:51:06.662Z,25.75
2018-08-16T07:52:06.772Z,25.69
2018-08-16T07:53:06.469Z,25.75
2018-08-16T07:54:06.416Z,25.78
2018-08-16T07:55:06.542Z,25.74
2018-08-16T07:56:06.581Z,25.75
2018-08-16T07:57:06.636Z,25.74
2018-08-16T07:58:07.509Z,25.78
2018-08-16T07:59:06.490Z,25.75
2018-08-16T08:00:06.506Z,25.83
2018-08-16T08:01:06.504Z,25.71
2018-08-16T08:02:06.325Z,25.75
2018-08-16T08:03:06.411Z,25.74
2018-08-16T08:04:06.426Z,25.78
2018-08-16T08:05:06.292Z,25.71
2018-08-16T08:06:06.785Z,25.74
2018-08-16T08:07:06.277Z,25.71
2018-08-16T08:08:06.421Z,25.75
2018-08-16T08:09:06.794Z,25.85
2018-08-16T08:10:06.446Z,25.71
2018-08-16T08:11:06.251Z,25.75
2018-08-16T08:12:06.347Z,25.78
2018-08-16T08:13:06.378Z,25.81
2018-08-16T08:14:06.376Z,25.75
2018-08-16T08:15:06.314Z,25.83
2018-08-16T08:16:06.314Z,25.90
2018-08-16T08:17:07.634Z,25.82
2018-08-16T08:18:06.301Z,25.82
2018-08-16T08:19:06.190Z,25.82
2018-08-16T08:20:06.142Z,25.86
2018-08-16T08:21:06.123Z,25.83
2018-08-16T08:22:06.122Z,25.85
2018-08-16T08:23:06.245Z,25.90
2018-08-16T08:24:06.095Z,25.86
2018-08-16T08:25:06.080Z,25.85
2018-08-16T08:26:07.417Z,25.79
2018-08-16T08:27:06.178Z,25.85
2018-08-16T08:28:06.194Z,25.85
2018-08-16T08:29:07.203Z,25.90
2018-08-16T08:30:06.025Z,25.82
2018-08-16T08:31:06.219Z,25.81
2018-08-16T08:32:06.142Z,25.83
2018-08-16T08:33:06.885Z,25.96
2018-08-16T08:34:06.113Z,25.90
2018-08-16T08:35:06.090Z,25.94
2018-08-16T08:36:06.075Z,25.96
2018-08-16T08:37:05.969Z,25.86
2018-08-16T08:38:06.067Z,25.83
2018-08-16T08:39:06.254Z,25.97
2018-08-16T08:40:06.061Z,25.96
2018-08-16T08:41:06.047Z,25.97
2018-08-16T08:42:06.016Z,25.94
2018-08-16T08:43:05.972Z,25.97
2018-08-16T08:44:06.033Z,25.91
2018-08-16T08:45:06.033Z,25.90
2018-08-16T08:46:05.866Z,25.97
2018-08-16T08:47:05.985Z,25.96
2018-08-16T08:48:05.854Z,25.97
2018-08-16T08:49:05.961Z,25.93
2018-08-16T08:50:05.828Z,26.00
2018-08-16T08:51:05.801Z,26.03
2018-08-16T08:52:05.789Z,25.94
2018-08-16T08:53:05.897Z,25.93
2018-08-16T08:54:06.734Z,25.97
2018-08-16T08:55:05.763Z,25.97
2018-08-16T08:56:05.884Z,26.01
2018-08-16T08:57:06.721Z,26.03
2018-08-16T08:58:05.722Z,26.00
2018-08-16T08:59:05.827Z,26.03
2018-08-16T09:00:05.830Z,26.06
2018-08-16T09:01:05.813Z,26.09
2018-08-16T09:02:05.818Z,26.04
2018-08-16T09:03:05.831Z,26.04
2018-08-16T09:04:05.779Z,25.98
2018-08-16T09:05:05.734Z,26.03
2018-08-16T09:06:05.855Z,26.04
2018-08-16T09:07:05.744Z,26.11
2018-08-16T09:08:05.870Z,26.04
2018-08-16T09:09:05.838Z,26.08
2018-08-16T09:10:05.742Z,26.08
2018-08-16T09:11:05.730Z,26.04
2018-08-16T09:12:06.213Z,26.16
2018-08-16T09:13:05.621Z,26.13
2018-08-16T09:14:05.688Z,26.12
2018-08-16T09:15:05.746Z,26.12
2018-08-16T09:16:05.660Z,26.08
2018-08-16T09:17:05.645Z,26.12
2018-08-16T09:18:05.658Z,26.13
2018-08-16T09:19:05.517Z,26.16
2018-08-16T09:20:05.618Z,26.19
2018-08-16T09:21:06.000Z,26.16
2018-08-16T09:22:05.582Z,26.13
2018-08-16T09:23:05.844Z,26.19
2018-08-16T09:24:05.636Z,26.17
2018-08-16T09:25:05.583Z,26.17
2018-08-16T09:26:05.549Z,26.21
2018-08-16T09:27:05.434Z,26.20
2018-08-16T09:28:05.538Z,26.20
2018-08-16T09:29:06.057Z,26.17
2018-08-16T09:30:05.587Z,26.20
2018-08-16T09:31:10.636Z,26.17
2018-08-16T09:32:05.545Z,26.19
2018-08-16T09:33:05.486Z,26.13
2018-08-16T09:34:05.481Z,26.17
2018-08-16T09:35:05.468Z,26.19
2018-08-16T09:36:05.450Z,26.23
2018-08-16T09:37:05.438Z,26.13
2018-08-16T09:38:05.459Z,26.21
2018-08-16T09:39:05.409Z,26.31
2018-08-16T09:40:05.289Z,26.20
2018-08-16T09:41:07.054Z,26.27
2018-08-16T09:42:05.469Z,26.31
2018-08-16T09:43:05.522Z,26.19
2018-08-16T09:44:05.384Z,26.23
2018-08-16T09:45:05.386Z,26.24
2018-08-16T09:46:05.204Z,26.24
2018-08-16T09:47:05.360Z,26.31
2018-08-16T09:48:05.316Z,26.38
2018-08-16T09:49:05.215Z,26.28
2018-08-16T09:50:05.175Z,26.34
2018-08-16T09:51:05.834Z,26.36
2018-08-16T09:52:05.741Z,26.31
2018-08-16T09:53:05.586Z,26.29
2018-08-16T09:54:05.168Z,26.32
2018-08-16T09:55:05.173Z,26.36
2018-08-16T09:56:05.141Z,26.36
2018-08-16T09:57:05.820Z,26.35
2018-08-16T09:58:05.121Z,26.34
2018-08-16T09:59:05.089Z,26.32
2018-08-16T10:00:05.234Z,26.35
2018-08-16T10:01:05.224Z,26.36
2018-08-16T10:02:05.205Z,26.36
2018-08-16T10:03:05.096Z,26.31
2018-08-16T10:04:05.031Z,26.38
2018-08-16T10:05:05.147Z,26.42
2018-08-16T10:06:05.130Z,26.36
2018-08-16T10:07:05.102Z,26.41
2018-08-16T10:08:05.753Z,26.36
2018-08-16T10:09:05.074Z,26.39
2018-08-16T10:10:05.095Z,26.41
2018-08-16T10:11:05.120Z,26.41
2018-08-16T10:12:05.069Z,26.38
2018-08-16T10:13:05.037Z,26.38
2018-08-16T10:14:05.159Z,26.42
2018-08-16T10:15:05.023Z,26.32
2018-08-16T10:16:04.975Z,26.49
2018-08-16T10:17:05.032Z,26.47
2018-08-16T10:18:04.874Z,26.42
2018-08-16T10:19:04.972Z,26.47
2018-08-16T10:20:04.972Z,26.50
2018-08-16T10:21:04.953Z,26.46
2018-08-16T10:22:04.904Z,26.49
2018-08-16T10:23:04.898Z,26.54
2018-08-16T10:24:04.815Z,26.39
2018-08-16T10:25:04.805Z,26.42
2018-08-16T10:26:04.900Z,26.56
2018-08-16T10:27:04.989Z,26.53
2018-08-16T10:28:05.000Z,26.56
2018-08-16T10:29:04.862Z,26.50
2018-08-16T10:30:04.909Z,26.53
2018-08-16T10:31:04.847Z,26.51
2018-08-16T10:32:04.727Z,26.47
2018-08-16T10:33:04.856Z,26.51
2018-08-16T10:34:04.754Z,26.41
2018-08-16T10:35:04.708Z,26.54
2018-08-16T10:36:04.765Z,26.44
2018-08-16T10:37:04.713Z,26.53
2018-08-16T10:38:04.689Z,26.54
2018-08-16T10:39:04.800Z,26.57
2018-08-16T10:40:04.907Z,26.60
2018-08-16T10:41:04.650Z,26.53
2018-08-16T10:42:04.718Z,26.61
2018-08-16T10:43:04.764Z,26.65
2018-08-16T10:44:04.602Z,26.50
2018-08-16T10:45:04.712Z,26.56
2018-08-16T10:46:04.688Z,26.59
2018-08-16T10:47:04.642Z,26.61
2018-08-16T10:48:04.659Z,26.59
2018-08-16T10:49:04.548Z,26.59
2018-08-16T10:50:04.546Z,26.65
2018-08-16T10:51:04.684Z,26.64
2018-08-16T10:52:04.560Z,26.61
2018-08-16T10:53:05.253Z,26.60
2018-08-16T10:54:05.067Z,26.73
2018-08-16T10:55:04.642Z,26.71
2018-08-16T10:56:04.557Z,26.69
2018-08-16T10:57:04.616Z,26.73
2018-08-16T10:58:04.563Z,26.66
2018-08-16T10:59:04.643Z,26.72
2018-08-16T11:00:04.492Z,26.73
2018-08-16T11:01:04.523Z,26.73
2018-08-16T11:02:04.569Z,26.71
2018-08-16T11:03:04.534Z,26.66
2018-08-16T11:04:04.517Z,26.76
2018-08-16T11:05:04.560Z,26.81
2018-08-16T11:06:04.490Z,26.72
2018-08-16T11:07:04.463Z,26.83
2018-08-16T11:08:04.457Z,26.76
2018-08-16T11:09:04.465Z,26.78
2018-08-16T11:10:04.431Z,26.75
2018-08-16T11:11:04.300Z,26.84
2018-08-16T11:12:04.443Z,26.78
2018-08-16T11:13:04.427Z,26.73
2018-08-16T11:14:04.279Z,26.79
2018-08-16T11:15:04.269Z,26.79
2018-08-16T11:16:04.336Z,26.87
2018-08-16T11:17:04.315Z,26.84
2018-08-16T11:18:04.394Z,26.81
2018-08-16T11:19:04.366Z,26.86
2018-08-16T11:20:04.218Z,26.83
2018-08-16T11:21:04.426Z,26.94
2018-08-16T11:22:04.316Z,26.90
2018-08-16T11:23:04.316Z,26.86
2018-08-16T11:24:04.434Z,26.88
2018-08-16T11:25:05.672Z,26.88
2018-08-16T11:26:04.338Z,26.91
2018-08-16T11:27:04.284Z,27.03
2018-08-16T11:28:04.137Z,26.98
2018-08-16T11:29:04.227Z,26.93
2018-08-16T11:30:04.236Z,27.01
2018-08-16T11:31:04.252Z,26.90
2018-08-16T11:32:04.158Z,26.91
2018-08-16T11:33:04.070Z,26.93
2018-08-16T11:34:04.179Z,27.08
2018-08-16T11:35:04.221Z,26.94
2018-08-16T11:36:04.180Z,27.08
2018-08-16T11:37:04.027Z,27.05
2018-08-16T11:38:07.844Z,27.06
2018-08-16T11:39:04.125Z,27.05
2018-08-16T11:40:04.077Z,27.03
2018-08-16T11:41:04.019Z,27.01
2018-08-16T11:42:04.106Z,26.98
2018-08-16T11:43:04.072Z,27.12
2018-08-16T11:44:04.100Z,27.11
2018-08-16T11:45:04.549Z,27.15
2018-08-16T11:46:04.082Z,27.15
2018-08-16T11:47:03.944Z,27.11
2018-08-16T11:48:03.917Z,27.16
2018-08-16T11:49:03.979Z,27.11
2018-08-16T11:50:04.046Z,27.15
2018-08-16T11:51:04.007Z,27.09
2018-08-16T11:52:03.947Z,27.15
2018-08-16T11:53:04.018Z,27.11
2018-08-16T11:54:03.960Z,27.13
2018-08-16T11:55:04.197Z,27.20
2018-08-16T11:56:03.974Z,27.23
2018-08-16T11:57:04.303Z,27.09
2018-08-16T11:58:04.313Z,27.23
2018-08-16T11:59:03.785Z,27.25
2018-08-16T12:00:04.162Z,27.28
2018-08-16T12:01:03.873Z,27.25
2018-08-16T12:02:03.911Z,27.27
2018-08-16T12:03:03.869Z,27.30
2018-08-16T12:04:03.852Z,27.28
2018-08-16T12:05:03.851Z,27.34
2018-08-16T12:06:04.083Z,27.35
2018-08-16T12:07:04.043Z,27.33
2018-08-16T12:08:03.823Z,27.34
2018-08-16T12:09:04.419Z,27.38
2018-08-16T12:10:03.787Z,27.40
2018-08-16T12:11:05.883Z,27.40
2018-08-16T12:12:03.817Z,27.45
2018-08-16T12:13:03.749Z,27.48
2018-08-16T12:14:03.773Z,27.45
2018-08-16T12:15:03.698Z,27.43
2018-08-16T12:16:03.747Z,27.45
2018-08-16T12:17:03.701Z,27.45
2018-08-16T12:18:03.730Z,27.52
2018-08-16T12:19:03.998Z,27.62
2018-08-16T12:20:03.703Z,27.63
2018-08-16T12:21:03.646Z,27.63
2018-08-16T12:22:03.975Z,27.61
2018-08-16T12:23:03.543Z,27.66
2018-08-16T12:24:03.657Z,27.66
2018-08-16T12:25:03.508Z,27.68
2018-08-16T12:26:03.540Z,27.72
2018-08-16T12:27:03.499Z,27.71
2018-08-16T12:28:03.557Z,27.71
2018-08-16T12:29:03.662Z,27.78
2018-08-16T12:30:03.597Z,27.78
2018-08-16T12:31:03.644Z,27.76
2018-08-16T12:32:03.867Z,27.78
2018-08-16T12:33:03.591Z,27.76
2018-08-16T12:34:03.565Z,27.78
2018-08-16T12:35:03.538Z,27.77
2018-08-16T12:36:03.414Z,27.81
2018-08-16T12:37:03.412Z,27.91
2018-08-16T12:38:03.498Z,27.84
2018-08-16T12:39:03.511Z,27.88
2018-08-16T12:40:03.467Z,27.87
2018-08-16T12:41:03.711Z,27.90
2018-08-16T12:42:03.549Z,27.99
2018-08-16T12:43:03.344Z,27.99
2018-08-16T12:44:03.472Z,28.02
2018-08-16T12:45:03.446Z,28.01
2018-08-16T12:46:03.472Z,28.01
2018-08-16T12:47:03.401Z,28.01
2018-08-16T12:48:03.369Z,28.03
2018-08-16T12:49:03.396Z,28.09
2018-08-16T12:50:03.320Z,28.08
2018-08-16T12:51:03.317Z,28.14
2018-08-16T12:52:03.247Z,28.15